createdAt,value
2023-01-13T08:09:45.327Z,49.60
2023-01-13T08:14:50.157Z,49.50
2023-01-13T08:19:53.226Z,48.90
2023-01-13T08:24:57.462Z,49.20
2023-01-13T08:30:00.313Z,48.90
2023-01-13T08:35:03.179Z,49.90
2023-01-13T08:40:09.347Z,49.00
2023-01-13T08:45:12.558Z,49.50
2023-01-13T08:50:15.672Z,49.70
2023-01-13T08:55:19.926Z,48.80
2023-01-13T09:00:23.165Z,49.10
2023-01-13T09:05:26.158Z,49.20
2023-01-13T09:10:30.395Z,48.80
2023-01-13T09:15:33.295Z,49.00
2023-01-13T09:20:36.183Z,48.60
2023-01-13T09:25:40.761Z,47.70
2023-01-13T09:30:43.666Z,48.20
2023-01-13T09:35:47.016Z,47.30
2023-01-13T09:40:51.434Z,48.00
2023-01-13T09:45:57.705Z,48.80
2023-01-13T09:51:04.662Z,47.30
2023-01-13T09:56:10.506Z,47.00
2023-01-13T10:01:20.964Z,47.20
2023-01-13T10:06:29.367Z,47.00
2023-01-13T10:11:54.631Z,47.10
2023-01-13T10:17:05.177Z,47.20
2023-01-13T10:22:26.408Z,47.20
2023-01-13T10:27:34.473Z,47.00
2023-01-13T10:32:37.337Z,47.00
2023-01-13T10:37:40.129Z,47.30
2023-01-13T10:42:44.411Z,47.10
2023-01-13T10:48:05.627Z,47.20
2023-01-13T10:53:18.719Z,47.00
2023-01-13T10:58:22.892Z,47.60
2023-01-13T11:03:26.087Z,47.70
2023-01-13T11:08:30.557Z,47.30
2023-01-13T11:13:37.153Z,47.50
2023-01-13T11:18:51.551Z,47.20
2023-01-13T11:24:03.366Z,47.10
2023-01-13T11:29:13.769Z,47.20
2023-01-13T11:34:25.920Z,46.90
2023-01-13T11:39:36.037Z,47.10
2023-01-13T11:44:42.756Z,46.80
2023-01-13T11:49:48.542Z,46.80
2023-01-13T11:55:04.223Z,46.90
2023-01-13T12:00:29.903Z,46.90
2023-01-13T12:05:37.991Z,48.00
2023-01-13T12:10:58.968Z,48.30
2023-01-13T12:16:11.024Z,48.10
2023-01-13T12:21:20.908Z,48.20
2023-01-13T12:26:24.330Z,48.20
2023-01-13T12:31:29.097Z,48.40
2023-01-13T12:36:38.598Z,48.20
2023-01-13T12:41:58.674Z,48.50
2023-01-13T12:47:02.880Z,48.10
2023-01-13T12:52:23.607Z,48.50
2023-01-13T12:57:27.896Z,48.70
2023-01-13T13:02:34.783Z,49.10
2023-01-13T13:07:41.742Z,49.20
2023-01-13T13:13:11.491Z,50.70
2023-01-13T13:18:29.739Z,50.80
2023-01-13T13:24:03.909Z,49.80
2023-01-13T13:29:16.647Z,48.90
2023-01-13T13:34:27.975Z,49.70
2023-01-13T13:39:49.628Z,49.20
2023-01-13T13:45:10.191Z,49.30
2023-01-13T13:50:16.465Z,49.10
2023-01-13T13:55:21.381Z,49.20
2023-01-13T14:00:26.772Z,49.20
2023-01-13T14:05:32.032Z,49.50
2023-01-13T14:10:44.845Z,48.90
2023-01-13T14:15:48.445Z,48.20
2023-01-13T14:20:59.253Z,48.20
2023-01-13T14:26:04.270Z,48.00
2023-01-13T14:31:09.001Z,48.40
2023-01-13T14:36:16.650Z,48.10
2023-01-13T14:41:23.016Z,48.30
2023-01-13T14:46:26.359Z,48.00
2023-01-13T14:51:31.377Z,48.00
2023-01-13T14:56:47.300Z,49.40
2023-01-13T15:01:50.223Z,49.20
2023-01-13T15:06:56.980Z,48.90
2023-01-13T15:12:00.595Z,48.60
2023-01-13T15:17:03.621Z,48.20
2023-01-13T15:22:07.836Z,47.90
2023-01-13T15:27:19.176Z,48.10
2023-01-13T15:32:22.892Z,48.60
2023-01-13T15:37:27.087Z,48.00
2023-01-13T15:42:47.387Z,48.10
2023-01-13T15:47:50.193Z,48.00
2023-01-13T15:52:54.484Z,47.80
2023-01-13T15:57:57.460Z,47.80
2023-01-13T16:03:00.685Z,47.80
2023-01-13T16:08:08.027Z,47.80
2023-01-13T16:13:11.492Z,47.50
2023-01-13T16:18:18.338Z,47.70
2023-01-13T16:23:23.423Z,48.00
2023-01-13T16:28:28.203Z,48.50
2023-01-13T16:33:31.044Z,48.60
2023-01-13T16:38:36.785Z,48.70
2023-01-13T16:43:39.586Z,48.70
2023-01-13T16:48:42.393Z,49.20
2023-01-13T16:53:46.637Z,48.80
2023-01-13T16:58:49.624Z,48.80
2023-01-13T17:03:52.966Z,49.20
2023-01-13T17:09:01.370Z,49.00
2023-01-13T17:14:18.265Z,49.20
2023-01-13T17:19:22.336Z,49.00
2023-01-13T17:24:28.767Z,49.10
2023-01-13T17:29:32.812Z,49.00
2023-01-13T17:34:35.627Z,49.00
2023-01-13T17:39:39.803Z,49.00
2023-01-13T17:44:43.050Z,49.00
2023-01-13T17:49:46.073Z,49.10
2023-01-13T17:54:50.269Z,49.00
2023-01-13T17:59:54.341Z,49.00
2023-01-13T18:04:57.127Z,49.00
2023-01-13T18:10:01.301Z,49.10
2023-01-13T18:15:04.291Z,49.20
2023-01-13T18:20:24.745Z,49.00
2023-01-13T18:25:46.598Z,49.00
2023-01-13T18:30:49.443Z,48.80
2023-01-13T18:35:52.428Z,49.10
2023-01-13T18:40:56.556Z,49.00
2023-01-13T18:46:00.847Z,48.80
2023-01-13T18:51:03.930Z,48.70
2023-01-13T18:56:12.065Z,48.70
2023-01-13T19:01:15.092Z,48.60
2023-01-13T19:06:19.028Z,48.80
2023-01-13T19:11:24.163Z,48.50
2023-01-13T19:16:27.004Z,48.40
2023-01-13T19:21:29.894Z,48.70
2023-01-13T19:26:34.107Z,48.50
2023-01-13T19:31:36.919Z,48.70
2023-01-13T19:36:39.970Z,48.50
2023-01-13T19:42:01.514Z,48.60
2023-01-13T19:47:04.662Z,48.50
2023-01-13T19:52:07.519Z,48.40
2023-01-13T19:57:11.740Z,48.40
2023-01-13T20:02:17.160Z,48.10
2023-01-13T20:07:20.038Z,48.30
2023-01-13T20:12:24.506Z,48.50
2023-01-13T20:17:29.064Z,48.30
2023-01-13T20:22:32.504Z,48.00
2023-01-13T20:27:36.951Z,48.40
2023-01-13T20:32:39.832Z,48.20
2023-01-13T20:37:43.961Z,48.30
2023-01-13T20:42:48.836Z,48.00
2023-01-13T20:47:52.776Z,47.90
2023-01-13T20:53:13.947Z,48.10
2023-01-13T20:58:18.117Z,47.90
2023-01-13T21:03:20.911Z,48.00
2023-01-13T21:08:23.696Z,48.10
2023-01-13T21:13:45.360Z,47.80
2023-01-13T21:19:10.760Z,47.90
2023-01-13T21:24:14.042Z,47.70
2023-01-13T21:29:18.219Z,47.90
2023-01-13T21:34:21.114Z,47.60
2023-01-13T21:39:23.971Z,47.80
2023-01-13T21:44:45.787Z,47.60
2023-01-13T21:49:51.428Z,47.70
2023-01-13T21:55:12.015Z,47.60
2023-01-13T22:00:18.705Z,47.80
2023-01-13T22:05:22.658Z,47.80
2023-01-13T22:10:28.311Z,47.70
2023-01-13T22:15:33.960Z,47.90
2023-01-13T22:20:36.799Z,47.70
2023-01-13T22:25:40.444Z,47.80
2023-01-13T22:30:45.304Z,47.80
2023-01-13T22:35:55.229Z,48.00
2023-01-13T22:40:58.854Z,47.60
2023-01-13T22:46:06.231Z,47.70
2023-01-13T22:51:10.890Z,47.60
2023-01-13T22:56:17.849Z,47.80
2023-01-13T23:01:22.325Z,47.70
2023-01-13T23:06:26.611Z,48.00
2023-01-13T23:11:30.838Z,47.90
2023-01-13T23:16:36.662Z,47.70
2023-01-13T23:21:39.757Z,47.90
2023-01-13T23:26:42.601Z,47.80
2023-01-13T23:31:46.773Z,47.80
2023-01-13T23:36:49.641Z,47.80
2023-01-13T23:41:52.648Z,47.80
2023-01-13T23:46:56.787Z,47.70
2023-01-13T23:51:59.853Z,47.90
2023-01-13T23:57:02.659Z,47.90
